Impacts METAR Board
IDs:

KMSP - Minneapolis-St Paul, MN, US

Updated at: 0500 UTC 07 Dec 2022
Potential Impact None Slight Moderate High
Time 06/17Z 06/18Z 06/19Z 06/20Z 06/21Z 06/22Z 06/23Z 07/00Z 07/01Z 07/02Z 07/03Z 07/04Z 07/05Z
Temp19 23 26 28 29 29 27 27 26 23 24 24 22
Dewpt11 12 14 16 16 17 16 17 17 16 16 17 16
Altim30.03 30.00 29.98 29.97 29.99 30.00 30.02 30.03 30.03 30.06 30.08 30.10 30.11
VIS10 10 10 10 10 10 10 10 10 10 10 10 10
CIG110 110 -- -- -- -- -- -- -- -- 120 120 150
CoverBKNBKNSCTFEWFEWFEWFEWFEWFEWSCTBKNBKNBKN
FltCatVFRVFRVFRVFRVFRVFRVFRVFRVFRVFRVFRVFRVFR
WX--------------------------
WDir1201401601601800027026030029000
WSpd3 8 7 6 4 3 0 5 4 6 4 0 0
WGst-- -- -- -- -- -- -- -- -- -- -- -- --
Raw hourly METARs
KMSP 061653Z 12003KT 10SM BKN110 BKN250 M07/M12 A3003 RMK AO2 SLP186 VIRGA T10721117
KMSP 061753Z 14008KT 10SM BKN110 BKN250 M05/M11 A3000 RMK AO2 SLP175 VIRGA 4/004 T10501111 11050 21117 58015
KMSP 061853Z 16007KT 10SM FEW110 SCT250 M03/M10 A2998 RMK AO2 SLP166 T10331100
KMSP 061953Z 16006KT 10SM FEW110 M02/M09 A2997 RMK AO2 SLP163 T10221089
KMSP 062053Z 18004KT 10SM FEW110 M02/M09 A2999 RMK AO2 SLP168 T10171089 55005
KMSP 062153Z VRB03KT 10SM FEW110 M02/M08 A3000 RMK AO2 SLP173 T10171083
KMSP 062253Z COR 00000KT 10SM FEW115 M03/M09 A3002 RMK AO2 SLP180 T10281089
KMSP 062353Z 27005KT 10SM FEW150 M03/M08 A3003 RMK AO2 SLP184 4/004 T10281083 11011 21050 51015
KMSP 070053Z 26004KT 10SM FEW150 M03/M08 A3003 RMK AO2 SLP185 T10331083
KMSP 070153Z 30006KT 10SM SCT150 M05/M09 A3006 RMK AO2 SLP195 T10501089
KMSP 070253Z 29004KT 10SM BKN120 M04/M09 A3008 RMK AO2 SLP202 T10441089 53017
KMSP 070353Z 00000KT 10SM BKN120 M04/M08 A3010 RMK AO2 SLP207 T10441083
KMSP 070453Z 00000KT 10SM BKN150 M06/M09 A3011 RMK AO2 SLP211 T10561089



Page loaded:  05:46 UTC  |   09:46 PM Pacific  |   10:46 PM Mountain  |   11:46 PM Central  |   12:46 AM Eastern

 

ADVISORIES

FORECASTS

FORECASTS

OBSERVATIONS

USER TOOLS

ABOUT US